sensor_id;sensor_type;location;lat;lon;timestamp;pressure;altitude;pressure_sealevel;temperature;humidity
45050;BME280;61798;48.048;-1.928;2023-04-01T00:00:09;100121.41;;;7.93;100.00
45050;BME280;61798;48.048;-1.928;2023-04-01T00:02:16;100114.41;;;7.92;100.00
45050;BME280;61798;48.048;-1.928;2023-04-01T00:04:22;100111.56;;;7.94;100.00
45050;BME280;61798;48.048;-1.928;2023-04-01T00:06:28;100124.72;;;7.96;100.00
45050;BME280;61798;48.048;-1.928;2023-04-01T00:08:34;100137.88;;;7.97;100.00
45050;BME280;61798;48.048;-1.928;2023-04-01T00:10:41;100134.19;;;7.98;100.00
45050;BME280;61798;48.048;-1.928;2023-04-01T00:12:47;100106.50;;;7.99;100.00
45050;BME280;61798;48.048;-1.928;2023-04-01T00:14:53;100141.88;;;8.08;100.00
45050;BME280;61798;48.048;-1.928;2023-04-01T00:16:59;100121.41;;;7.93;100.00
45050;BME280;61798;48.048;-1.928;2023-04-01T00:19:06;100136.19;;;8.11;100.00
45050;BME280;61798;48.048;-1.928;2023-04-01T00:21:12;100122.31;;;8.01;100.00
45050;BME280;61798;48.048;-1.928;2023-04-01T00:23:19;100134.53;;;8.10;100.00
45050;BME280;61798;48.048;-1.928;2023-04-01T00:25:26;100128.91;;;8.05;100.00
45050;BME280;61798;48.048;-1.928;2023-04-01T00:27:32;100150.03;;;8.22;100.00
45050;BME280;61798;48.048;-1.928;2023-04-01T00:29:45;100139.31;;;8.15;100.00
45050;BME280;61798;48.048;-1.928;2023-04-01T00:31:52;100118.75;;;7.93;100.00
45050;BME280;61798;48.048;-1.928;2023-04-01T00:33:58;100143.91;;;8.06;100.00
45050;BME280;61798;48.048;-1.928;2023-04-01T00:36:13;100140.88;;;8.09;100.00
45050;BME280;61798;48.048;-1.928;2023-04-01T00:38:20;100154.88;;;8.11;100.00
45050;BME280;61798;48.048;-1.928;2023-04-01T00:40:32;100146.84;;;8.11;100.00
45050;BME280;61798;48.048;-1.928;2023-04-01T00:42:39;100151.53;;;8.09;100.00
45050;BME280;61798;48.048;-1.928;2023-04-01T00:44:51;100112.63;;;7.78;100.00
45050;BME280;61798;48.048;-1.928;2023-04-01T00:46:57;100136.13;;;7.89;100.00
45050;BME280;61798;48.048;-1.928;2023-04-01T00:49:03;100144.78;;;7.91;100.00
45050;BME280;61798;48.048;-1.928;2023-04-01T00:51:12;100150.59;;;7.95;100.00
45050;BME280;61798;48.048;-1.928;2023-04-01T00:53:20;100135.25;;;7.82;100.00
45050;BME280;61798;48.048;-1.928;2023-04-01T00:55:29;100107.78;;;7.51;100.00
45050;BME280;61798;48.048;-1.928;2023-04-01T00:57:37;100155.09;;;7.95;100.00
45050;BME280;61798;48.048;-1.928;2023-04-01T00:59:48;100146.66;;;7.76;100.00
45050;BME280;61798;48.048;-1.928;2023-04-01T01:01:55;100146.22;;;7.72;100.00
45050;BME280;61798;48.048;-1.928;2023-04-01T01:04:01;100140.50;;;7.75;100.00
45050;BME280;61798;48.048;-1.928;2023-04-01T01:08:57;100162.56;;;7.69;100.00
45050;BME280;61798;48.048;-1.928;2023-04-01T01:11:10;100143.06;;;7.68;100.00
45050;BME280;61798;48.048;-1.928;2023-04-01T01:15:44;100147.03;;;7.57;100.00
45050;BME280;61798;48.048;-1.928;2023-04-01T01:18:02;100166.97;;;7.77;100.00
45050;BME280;61798;48.048;-1.928;2023-04-01T01:23:07;100167.81;;;7.77;100.00
45050;BME280;61798;48.048;-1.928;2023-04-01T01:25:25;100167.25;;;7.82;100.00
45050;BME280;61798;48.048;-1.928;2023-04-01T01:27:38;100154.00;;;7.74;100.00
45050;BME280;61798;48.048;-1.928;2023-04-01T01:32:18;100153.72;;;7.83;100.00
45050;BME280;61798;48.048;-1.928;2023-04-01T01:37:08;100158.97;;;7.77;100.00
45050;BME280;61798;48.048;-1.928;2023-04-01T01:39:17;100168.47;;;7.79;100.00
45050;BME280;61798;48.048;-1.928;2023-04-01T01:41:25;100173.34;;;7.76;100.00
45050;BME280;61798;48.048;-1.928;2023-04-01T01:43:39;100154.00;;;7.74;100.00
45050;BME280;61798;48.048;-1.928;2023-04-01T01:45:49;100162.56;;;7.69;100.00
45050;BME280;61798;48.048;-1.928;2023-04-01T01:47:57;100125.00;;;7.48;100.00
45050;BME280;61798;48.048;-1.928;2023-04-01T01:50:05;100172.97;;;7.79;100.00
45050;BME280;61798;48.048;-1.928;2023-04-01T01:52:12;100177.19;;;7.73;100.00
45050;BME280;61798;48.048;-1.928;2023-04-01T01:54:19;100163.41;;;7.69;100.00
45050;BME280;61798;48.048;-1.928;2023-04-01T01:56:28;100181.13;;;7.77;100.00
45050;BME280;61798;48.048;-1.928;2023-04-01T01:58:44;100123.44;;;7.39;100.00
45050;BME280;61798;48.048;-1.928;2023-04-01T02:01:02;100148.06;;;7.56;100.00
45050;BME280;61798;48.048;-1.928;2023-04-01T02:03:12;100164.59;;;7.67;100.00
45050;BME280;61798;48.048;-1.928;2023-04-01T02:05:22;100186.03;;;7.74;100.00
45050;BME280;61798;48.048;-1.928;2023-04-01T02:07:32;100176.19;;;7.74;100.00
45050;BME280;61798;48.048;-1.928;2023-04-01T02:09:42;100164.69;;;7.58;100.00
45050;BME280;61798;48.048;-1.928;2023-04-01T02:12:00;100176.00;;;7.60;100.00
45050;BME280;61798;48.048;-1.928;2023-04-01T02:14:14;100178.31;;;7.64;100.00
45050;BME280;61798;48.048;-1.928;2023-04-01T02:16:28;100169.72;;;7.68;100.00
45050;BME280;61798;48.048;-1.928;2023-04-01T02:18:38;100163.41;;;7.69;100.00
45050;BME280;61798;48.048;-1.928;2023-04-01T02:20:45;100162.31;;;7.48;100.00
45050;BME280;61798;48.048;-1.928;2023-04-01T02:22:53;100168.72;;;7.69;100.00
45050;BME280;61798;48.048;-1.928;2023-04-01T02:25:16;100170.78;;;7.67;100.00
45050;BME280;61798;48.048;-1.928;2023-04-01T02:27:23;100158.81;;;7.63;100.00
45050;BME280;61798;48.048;-1.928;2023-04-01T02:29:31;100136.91;;;7.53;100.00
45050;BME280;61798;48.048;-1.928;2023-04-01T02:31:38;100144.72;;;7.69;100.00
45050;BME280;61798;48.048;-1.928;2023-04-01T02:33:46;100152.09;;;7.67;100.00
45050;BME280;61798;48.048;-1.928;2023-04-01T02:35:53;100132.88;;;7.57;100.00
45050;BME280;61798;48.048;-1.928;2023-04-01T02:38:00;100135.47;;;7.50;100.00
45050;BME280;61798;48.048;-1.928;2023-04-01T02:40:09;100118.84;;;7.48;100.00
45050;BME280;61798;48.048;-1.928;2023-04-01T02:42:17;100139.16;;;7.64;100.00
45050;BME280;61798;48.048;-1.928;2023-04-01T02:44:23;100151.00;;;7.61;100.00
45050;BME280;61798;48.048;-1.928;2023-04-01T02:46:29;100125.81;;;7.49;100.00
45050;BME280;61798;48.048;-1.928;2023-04-01T02:48:35;100147.84;;;7.73;100.00
45050;BME280;61798;48.048;-1.928;2023-04-01T02:50:42;100096.94;;;7.37;100.00
45050;BME280;61798;48.048;-1.928;2023-04-01T02:52:48;100134.75;;;7.56;100.00
45050;BME280;61798;48.048;-1.928;2023-04-01T02:54:55;100159.72;;;7.70;100.00
45050;BME280;61798;48.048;-1.928;2023-04-01T02:57:01;100158.72;;;7.71;100.00
45050;BME280;61798;48.048;-1.928;2023-04-01T02:59:08;100148.59;;;7.67;100.00
45050;BME280;61798;48.048;-1.928;2023-04-01T03:01:14;100156.97;;;7.64;100.00
45050;BME280;61798;48.048;-1.928;2023-04-01T03:03:20;100156.78;;;7.65;100.00
45050;BME280;61798;48.048;-1.928;2023-04-01T03:05:26;100141.25;;;7.54;100.00
45050;BME280;61798;48.048;-1.928;2023-04-01T03:07:33;100180.69;;;7.74;100.00
45050;BME280;61798;48.048;-1.928;2023-04-01T03:09:41;100122.88;;;7.44;100.00
45050;BME280;61798;48.048;-1.928;2023-04-01T03:11:49;100163.50;;;7.76;100.00
45050;BME280;61798;48.048;-1.928;2023-04-01T03:13:55;100124.50;;;7.45;100.00
45050;BME280;61798;48.048;-1.928;2023-04-01T03:16:02;100153.19;;;7.73;100.00
45050;BME280;61798;48.048;-1.928;2023-04-01T03:18:10;100147.69;;;7.59;100.00
45050;BME280;61798;48.048;-1.928;2023-04-01T03:20:16;100179.31;;;7.78;100.00
45050;BME280;61798;48.048;-1.928;2023-04-01T03:22:23;100158.97;;;7.77;100.00
45050;BME280;61798;48.048;-1.928;2023-04-01T03:24:30;100168.69;;;7.85;100.00
45050;BME280;61798;48.048;-1.928;2023-04-01T03:26:36;100141.22;;;7.69;100.00
45050;BME280;61798;48.048;-1.928;2023-04-01T03:28:43;100165.25;;;7.84;100.00
45050;BME280;61798;48.048;-1.928;2023-04-01T03:30:49;100162.28;;;7.79;100.00
45050;BME280;61798;48.048;-1.928;2023-04-01T03:32:55;100147.00;;;7.72;100.00
45050;BME280;61798;48.048;-1.928;2023-04-01T03:35:02;100147.00;;;7.72;100.00
45050;BME280;61798;48.048;-1.928;2023-04-01T03:37:10;100181.13;;;7.92;100.00
45050;BME280;61798;48.048;-1.928;2023-04-01T03:39:20;100154.47;;;7.77;100.00
45050;BME280;61798;48.048;-1.928;2023-04-01T03:41:31;100170.75;;;7.82;100.00
45050;BME280;61798;48.048;-1.928;2023-04-01T03:43:42;100180.50;;;7.90;100.00
45050;BME280;61798;48.048;-1.928;2023-04-01T03:45:52;100169.28;;;7.80;100.00
45050;BME280;61798;48.048;-1.928;2023-04-01T03:48:03;100167.25;;;7.82;100.00
45050;BME280;61798;48.048;-1.928;2023-04-01T03:50:10;100171.56;;;7.83;100.00
45050;BME280;61798;48.048;-1.928;2023-04-01T03:52:17;100169.00;;;7.75;100.00
45050;BME280;61798;48.048;-1.928;2023-04-01T03:54:23;100172.88;;;7.72;100.00
45050;BME280;61798;48.048;-1.928;2023-04-01T03:56:29;100158.63;;;7.65;100.00
45050;BME280;61798;48.048;-1.928;2023-04-01T03:58:35;100177.28;;;7.80;100.00
45050;BME280;61798;48.048;-1.928;2023-04-01T04:00:41;100193.81;;;7.90;100.00
45050;BME280;61798;48.048;-1.928;2023-04-01T04:02:48;100176.72;;;7.85;100.00
45050;BME280;61798;48.048;-1.928;2023-04-01T04:04:54;100150.25;;;7.68;100.00
45050;BME280;61798;48.048;-1.928;2023-04-01T04:07:00;100160.09;;;7.67;100.00
45050;BME280;61798;48.048;-1.928;2023-04-01T04:09:06;100183.81;;;7.77;100.00
45050;BME280;61798;48.048;-1.928;2023-04-01T04:11:13;100159.91;;;7.69;100.00
45050;BME280;61798;48.048;-1.928;2023-04-01T04:13:19;100147.59;;;7.53;100.00
45050;BME280;61798;48.048;-1.928;2023-04-01T04:15:25;100204.13;;;7.78;100.00
45050;BME280;61798;48.048;-1.928;2023-04-01T04:17:31;100180.97;;;7.64;100.00
45050;BME280;61798;48.048;-1.928;2023-04-01T04:19:37;100196.16;;;7.63;100.00
45050;BME280;61798;48.048;-1.928;2023-04-01T04:21:43;100205.53;;;7.59;100.00
45050;BME280;61798;48.048;-1.928;2023-04-01T04:23:50;100206.38;;;7.59;100.00
45050;BME280;61798;48.048;-1.928;2023-04-01T04:26:02;100184.81;;;7.46;100.00
45050;BME280;61798;48.048;-1.928;2023-04-01T04:28:08;100189.00;;;7.48;100.00
45050;BME280;61798;48.048;-1.928;2023-04-01T04:30:15;100205.16;;;7.62;100.00
45050;BME280;61798;48.048;-1.928;2023-04-01T04:32:21;100209.94;;;7.51;100.00
45050;BME280;61798;48.048;-1.928;2023-04-01T04:34:27;100189.41;;;7.37;100.00
45050;BME280;61798;48.048;-1.928;2023-04-01T04:36:33;100201.38;;;7.41;100.00
45050;BME280;61798;48.048;-1.928;2023-04-01T04:38:39;100202.41;;;7.40;100.00
45050;BME280;61798;48.048;-1.928;2023-04-01T04:40:45;100158.25;;;7.22;100.00
45050;BME280;61798;48.048;-1.928;2023-04-01T04:42:52;100175.63;;;7.18;100.00
45050;BME280;61798;48.048;-1.928;2023-04-01T04:44:58;100197.41;;;7.37;100.00
45050;BME280;61798;48.048;-1.928;2023-04-01T04:47:04;100160.53;;;7.10;100.00
45050;BME280;61798;48.048;-1.928;2023-04-01T04:49:10;100170.75;;;7.22;100.00
45050;BME280;61798;48.048;-1.928;2023-04-01T04:51:18;100155.47;;;7.00;100.00
45050;BME280;61798;48.048;-1.928;2023-04-01T04:53:24;100200.81;;;7.30;100.00
45050;BME280;61798;48.048;-1.928;2023-04-01T04:55:32;100172.56;;;7.06;100.00
45050;BME280;61798;48.048;-1.928;2023-04-01T04:57:38;100190.97;;;7.16;100.00
45050;BME280;61798;48.048;-1.928;2023-04-01T04:59:44;100218.00;;;7.28;100.00
45050;BME280;61798;48.048;-1.928;2023-04-01T05:01:50;100174.88;;;7.09;100.00
45050;BME280;61798;48.048;-1.928;2023-04-01T05:03:56;100148.84;;;6.81;100.00
45050;BME280;61798;48.048;-1.928;2023-04-01T05:06:02;100176.13;;;6.98;100.00
45050;BME280;61798;48.048;-1.928;2023-04-01T05:08:08;100202.53;;;7.08;100.00
45050;BME280;61798;48.048;-1.928;2023-04-01T05:10:15;100204.25;;;7.01;100.00
45050;BME280;61798;48.048;-1.928;2023-04-01T05:12:21;100224.31;;;7.12;100.00
45050;BME280;61798;48.048;-1.928;2023-04-01T05:14:27;100147.59;;;6.68;100.00
45050;BME280;61798;48.048;-1.928;2023-04-01T05:16:33;100226.91;;;7.20;100.00
45050;BME280;61798;48.048;-1.928;2023-04-01T05:18:39;100208.09;;;6.98;100.00
45050;BME280;61798;48.048;-1.928;2023-04-01T05:20:48;100238.66;;;7.11;100.00
45050;BME280;61798;48.048;-1.928;2023-04-01T05:22:58;100236.97;;;7.09;100.00
45050;BME280;61798;48.048;-1.928;2023-04-01T05:25:05;100216.75;;;7.00;100.00
45050;BME280;61798;48.048;-1.928;2023-04-01T05:27:11;100194.47;;;6.93;100.00
45050;BME280;61798;48.048;-1.928;2023-04-01T05:29:17;100219.16;;;7.10;100.00
45050;BME280;61798;48.048;-1.928;2023-04-01T05:31:23;100187.31;;;6.93;100.00
45050;BME280;61798;48.048;-1.928;2023-04-01T05:33:32;100173.19;;;6.93;100.00
45050;BME280;61798;48.048;-1.928;2023-04-01T05:35:42;100200.72;;;7.08;100.00
45050;BME280;61798;48.048;-1.928;2023-04-01T05:37:48;100201.50;;;7.09;100.00
45050;BME280;61798;48.048;-1.928;2023-04-01T05:39:54;100195.00;;;7.12;100.00
45050;BME280;61798;48.048;-1.928;2023-04-01T05:42:01;100203.31;;;6.93;100.00
45050;BME280;61798;48.048;-1.928;2023-04-01T05:44:07;100161.75;;;6.69;100.00
45050;BME280;61798;48.048;-1.928;2023-04-01T05:46:13;100190.25;;;6.83;100.00
45050;BME280;61798;48.048;-1.928;2023-04-01T05:48:19;100124.19;;;6.40;100.00
45050;BME280;61798;48.048;-1.928;2023-04-01T05:50:25;100214.91;;;6.77;100.00
45050;BME280;61798;48.048;-1.928;2023-04-01T05:52:32;100212.41;;;6.84;100.00
45050;BME280;61798;48.048;-1.928;2023-04-01T05:54:38;100198.84;;;6.70;100.00
45050;BME280;61798;48.048;-1.928;2023-04-01T05:56:44;100217.31;;;6.72;100.00
45050;BME280;61798;48.048;-1.928;2023-04-01T05:58:52;100210.84;;;6.66;100.00
45050;BME280;61798;48.048;-1.928;2023-04-01T06:01:07;100188.53;;;6.43;100.00
45050;BME280;61798;48.048;-1.928;2023-04-01T06:03:13;100185.47;;;6.55;100.00
45050;BME280;61798;48.048;-1.928;2023-04-01T06:05:23;100209.31;;;6.48;100.00
45050;BME280;61798;48.048;-1.928;2023-04-01T06:07:34;100229.97;;;6.70;100.00
45050;BME280;61798;48.048;-1.928;2023-04-01T06:09:44;100213.56;;;6.58;100.00
45050;BME280;61798;48.048;-1.928;2023-04-01T06:14:28;100237.31;;;6.68;100.00
45050;BME280;61798;48.048;-1.928;2023-04-01T06:26:43;100248.50;;;6.86;100.00
45050;BME280;61798;48.048;-1.928;2023-04-01T06:31:34;100242.16;;;6.87;100.00
45050;BME280;61798;48.048;-1.928;2023-04-01T06:34:04;100231.88;;;6.84;100.00
45050;BME280;61798;48.048;-1.928;2023-04-01T06:46:11;100215.53;;;6.87;100.00
45050;BME280;61798;48.048;-1.928;2023-04-01T06:55:32;100238.66;;;7.11;100.00
45050;BME280;61798;48.048;-1.928;2023-04-01T06:57:45;100241.16;;;7.27;100.00
45050;BME280;61798;48.048;-1.928;2023-04-01T06:59:55;100234.09;;;7.35;100.00
45050;BME280;61798;48.048;-1.928;2023-04-01T07:05:06;100231.06;;;7.38;100.00
45050;BME280;61798;48.048;-1.928;2023-04-01T07:09:41;100206.88;;;7.24;100.00
45050;BME280;61798;48.048;-1.928;2023-04-01T07:11:53;100222.06;;;7.39;100.00
45050;BME280;61798;48.048;-1.928;2023-04-01T07:14:24;100221.41;;;7.37;100.00
45050;BME280;61798;48.048;-1.928;2023-04-01T07:16:32;100226.66;;;7.45;100.00
45050;BME280;61798;48.048;-1.928;2023-04-01T07:19:12;100229.63;;;7.50;100.00
45050;BME280;61798;48.048;-1.928;2023-04-01T07:21:30;100201.75;;;7.38;100.00
45050;BME280;61798;48.048;-1.928;2023-04-01T07:23:44;100202.41;;;7.40;100.00
45050;BME280;61798;48.048;-1.928;2023-04-01T07:25:56;100229.16;;;7.62;100.00
45050;BME280;61798;48.048;-1.928;2023-04-01T07:28:12;100226.41;;;7.70;100.00
45050;BME280;61798;48.048;-1.928;2023-04-01T07:30:22;100212.16;;;7.63;100.00
45050;BME280;61798;48.048;-1.928;2023-04-01T07:32:47;100207.66;;;7.64;100.00
45050;BME280;61798;48.048;-1.928;2023-04-01T07:35:21;100235.50;;;7.91;100.00
45050;BME280;61798;48.048;-1.928;2023-04-01T07:38:34;100240.00;;;8.06;100.00
45050;BME280;61798;48.048;-1.928;2023-04-01T07:40:57;100233.06;;;8.27;100.00
45050;BME280;61798;48.048;-1.928;2023-04-01T07:43:37;100235.19;;;8.54;100.00
45050;BME280;61798;48.048;-1.928;2023-04-01T07:48:38;100179.78;;;8.19;100.00
45050;BME280;61798;48.048;-1.928;2023-04-01T07:51:27;100184.22;;;8.11;100.00
45050;BME280;61798;48.048;-1.928;2023-04-01T07:56:20;100230.53;;;8.41;100.00
45050;BME280;61798;48.048;-1.928;2023-04-01T07:59:04;100224.84;;;8.44;100.00
45050;BME280;61798;48.048;-1.928;2023-04-01T08:06:48;100215.88;;;8.52;100.00
45050;BME280;61798;48.048;-1.928;2023-04-01T08:09:33;100230.47;;;8.56;100.00
45050;BME280;61798;48.048;-1.928;2023-04-01T08:17:47;100220.91;;;8.84;100.00
45050;BME280;61798;48.048;-1.928;2023-04-01T08:20:28;100220.72;;;8.85;100.00
45050;BME280;61798;48.048;-1.928;2023-04-01T08:25:24;100221.69;;;8.77;100.00
45050;BME280;61798;48.048;-1.928;2023-04-01T08:27:37;100210.59;;;8.59;100.00
45050;BME280;61798;48.048;-1.928;2023-04-01T08:30:05;100220.63;;;9.01;100.00
45050;BME280;61798;48.048;-1.928;2023-04-01T08:32:29;100230.00;;;8.90;100.00
45050;BME280;61798;48.048;-1.928;2023-04-01T08:34:47;100236.88;;;8.99;100.00
45050;BME280;61798;48.048;-1.928;2023-04-01T08:37:07;100215.19;;;8.87;100.00
45050;BME280;61798;48.048;-1.928;2023-04-01T08:47:13;100233.63;;;9.04;100.00
45050;BME280;61798;48.048;-1.928;2023-04-01T08:59:57;100229.25;;;9.25;100.00
45050;BME280;61798;48.048;-1.928;2023-04-01T09:02:26;100155.19;;;8.90;100.00
45050;BME280;61798;48.048;-1.928;2023-04-01T09:19:47;100209.28;;;9.92;100.00
45050;BME280;61798;48.048;-1.928;2023-04-01T09:24:30;100210.25;;;9.84;100.00
45050;BME280;61798;48.048;-1.928;2023-04-01T09:34:12;100182.88;;;9.75;100.00
45050;BME280;61798;48.048;-1.928;2023-04-01T09:36:52;100172.22;;;9.96;100.00
45050;BME280;61798;48.048;-1.928;2023-04-01T09:39:30;100200.66;;;10.03;100.00
45050;BME280;61798;48.048;-1.928;2023-04-01T09:44:18;100194.44;;;9.82;100.00
45050;BME280;61798;48.048;-1.928;2023-04-01T09:47:07;100210.69;;;9.88;100.00
45050;BME280;61798;48.048;-1.928;2023-04-01T10:11:38;100189.28;;;10.51;100.00
45050;BME280;61798;48.048;-1.928;2023-04-01T10:18:56;100199.59;;;10.67;100.00
45050;BME280;61798;48.048;-1.928;2023-04-01T10:28:33;100185.00;;;10.97;100.00
45050;BME280;61798;48.048;-1.928;2023-04-01T10:33:38;100188.69;;;10.62;100.00
45050;BME280;61798;48.048;-1.928;2023-04-01T11:06:11;100144.38;;;11.74;100.00
45050;BME280;61798;48.048;-1.928;2023-04-01T11:24:20;100231.63;;;9.70;100.00
45050;BME280;61798;48.048;-1.928;2023-04-01T11:26:37;100258.78;;;9.38;100.00
45050;BME280;61798;48.048;-1.928;2023-04-01T11:33:52;100240.00;;;9.31;100.00
45050;BME280;61798;48.048;-1.928;2023-04-01T11:36:28;100260.88;;;9.43;100.00
45050;BME280;61798;48.048;-1.928;2023-04-01T11:38:57;100226.25;;;9.06;100.00
45050;BME280;61798;48.048;-1.928;2023-04-01T11:46:30;100198.81;;;9.97;100.00
45050;BME280;61798;48.048;-1.928;2023-04-01T11:49:05;100223.81;;;10.32;100.00
45050;BME280;61798;48.048;-1.928;2023-04-01T11:54:06;100253.63;;;10.57;100.00
45050;BME280;61798;48.048;-1.928;2023-04-01T11:56:22;100247.06;;;11.15;100.00
45050;BME280;61798;48.048;-1.928;2023-04-01T12:01:25;100243.31;;;10.68;100.00
45050;BME280;61798;48.048;-1.928;2023-04-01T12:08:54;100214.06;;;11.00;100.00
45050;BME280;61798;48.048;-1.928;2023-04-01T12:14:21;100221.28;;;11.20;100.00
45050;BME280;61798;48.048;-1.928;2023-04-01T12:16:41;100212.00;;;11.30;100.00
45050;BME280;61798;48.048;-1.928;2023-04-01T12:21:45;100201.19;;;11.64;100.00
45050;BME280;61798;48.048;-1.928;2023-04-01T12:24:33;100187.59;;;12.05;100.00
45050;BME280;61798;48.048;-1.928;2023-04-01T12:27:02;100203.72;;;12.05;100.00
45050;BME280;61798;48.048;-1.928;2023-04-01T12:37:03;100211.13;;;11.50;100.00
45050;BME280;61798;48.048;-1.928;2023-04-01T12:42:08;100197.84;;;12.29;100.00
45050;BME280;61798;48.048;-1.928;2023-04-01T12:44:52;100198.69;;;12.62;100.00
45050;BME280;61798;48.048;-1.928;2023-04-01T12:47:21;100171.59;;;12.89;100.00
45050;BME280;61798;48.048;-1.928;2023-04-01T12:49:56;100175.72;;;13.10;100.00
45050;BME280;61798;48.048;-1.928;2023-04-01T12:52:34;100173.81;;;12.92;100.00
45050;BME280;61798;48.048;-1.928;2023-04-01T13:02:51;100291.53;;;10.12;100.00
45050;BME280;61798;48.048;-1.928;2023-04-01T13:07:38;100271.22;;;9.89;100.00
45050;BME280;61798;48.048;-1.928;2023-04-01T13:09:57;100253.50;;;9.52;100.00
45050;BME280;61798;48.048;-1.928;2023-04-01T13:12:40;100280.13;;;9.96;100.00
45050;BME280;61798;48.048;-1.928;2023-04-01T13:20:07;100257.78;;;9.75;100.00
45050;BME280;61798;48.048;-1.928;2023-04-01T13:23:01;100260.69;;;9.80;100.00
45050;BME280;61798;48.048;-1.928;2023-04-01T13:27:44;100249.50;;;10.12;100.00
45050;BME280;61798;48.048;-1.928;2023-04-01T13:42:01;100240.25;;;11.46;100.00
45050;BME280;61798;48.048;-1.928;2023-04-01T13:49:13;100253.63;;;12.33;100.00
45050;BME280;61798;48.048;-1.928;2023-04-01T14:00:03;100268.31;;;11.57;100.00
45050;BME280;61798;48.048;-1.928;2023-04-01T14:07:53;100261.28;;;10.95;100.00
45050;BME280;61798;48.048;-1.928;2023-04-01T14:10:23;100269.13;;;11.03;100.00
45050;BME280;61798;48.048;-1.928;2023-04-01T14:22:43;100254.94;;;12.56;100.00
45050;BME280;61798;48.048;-1.928;2023-04-01T14:34:34;100294.09;;;10.90;100.00
45050;BME280;61798;48.048;-1.928;2023-04-01T14:41:48;100293.88;;;11.60;100.00
45050;BME280;61798;48.048;-1.928;2023-04-01T14:49:00;100253.13;;;11.90;100.00
45050;BME280;61798;48.048;-1.928;2023-04-01T14:51:23;100254.78;;;11.91;100.00
45050;BME280;61798;48.048;-1.928;2023-04-01T14:53:38;100276.25;;;11.98;100.00
45050;BME280;61798;48.048;-1.928;2023-04-01T14:55:56;100257.19;;;12.06;100.00
45050;BME280;61798;48.048;-1.928;2023-04-01T14:58:14;100265.09;;;12.01;100.00
45050;BME280;61798;48.048;-1.928;2023-04-01T15:00:21;100289.50;;;11.86;100.00
45050;BME280;61798;48.048;-1.928;2023-04-01T15:02:55;100266.53;;;12.04;100.00
45050;BME280;61798;48.048;-1.928;2023-04-01T15:08:03;100279.59;;;11.80;100.00
45050;BME280;61798;48.048;-1.928;2023-04-01T15:13:24;100280.31;;;12.14;100.00
45050;BME280;61798;48.048;-1.928;2023-04-01T15:29:49;100261.75;;;13.43;100.00
45050;BME280;61798;48.048;-1.928;2023-04-01T15:34:53;100264.69;;;13.41;100.00
45050;BME280;61798;48.048;-1.928;2023-04-01T15:39:50;100262.53;;;12.34;100.00
45050;BME280;61798;48.048;-1.928;2023-04-01T15:44:44;100269.34;;;13.02;100.00
45050;BME280;61798;48.048;-1.928;2023-04-01T15:46:53;100259.19;;;13.04;100.00
45050;BME280;61798;48.048;-1.928;2023-04-01T15:57:20;100276.03;;;13.43;100.00
45050;BME280;61798;48.048;-1.928;2023-04-01T16:04:46;100292.28;;;13.56;100.00
45050;BME280;61798;48.048;-1.928;2023-04-01T16:14:26;100329.59;;;12.94;100.00
45050;BME280;61798;48.048;-1.928;2023-04-01T16:24:45;100339.66;;;11.99;100.00
45050;BME280;61798;48.048;-1.928;2023-04-01T16:34:34;100364.84;;;12.19;100.00
45050;BME280;61798;48.048;-1.928;2023-04-01T16:37:14;100359.50;;;11.91;100.00
45050;BME280;61798;48.048;-1.928;2023-04-01T16:39:44;100354.38;;;11.76;100.00
45050;BME280;61798;48.048;-1.928;2023-04-01T16:42:19;100373.97;;;11.77;100.00
45050;BME280;61798;48.048;-1.928;2023-04-01T16:44:26;100344.66;;;11.48;100.00
45050;BME280;61798;48.048;-1.928;2023-04-01T16:46:38;100368.00;;;11.68;100.00
45050;BME280;61798;48.048;-1.928;2023-04-01T16:51:16;100374.56;;;12.13;100.00
45050;BME280;61798;48.048;-1.928;2023-04-01T16:53:53;100370.03;;;11.93;100.00
45050;BME280;61798;48.048;-1.928;2023-04-01T16:56:25;100365.91;;;11.90;100.00
45050;BME280;61798;48.048;-1.928;2023-04-01T17:01:44;100359.72;;;11.97;100.00
45050;BME280;61798;48.048;-1.928;2023-04-01T17:04:33;100387.00;;;11.93;100.00
45050;BME280;61798;48.048;-1.928;2023-04-01T17:07:14;100388.84;;;11.59;100.00
45050;BME280;61798;48.048;-1.928;2023-04-01T17:09:59;100349.41;;;11.18;100.00
45050;BME280;61798;48.048;-1.928;2023-04-01T17:12:14;100405.16;;;11.50;100.00
45050;BME280;61798;48.048;-1.928;2023-04-01T17:19:55;100413.41;;;11.42;100.00
45050;BME280;61798;48.048;-1.928;2023-04-01T17:27:59;100430.34;;;11.90;100.00
45050;BME280;61798;48.048;-1.928;2023-04-01T17:35:18;100448.91;;;11.44;100.00
45050;BME280;61798;48.048;-1.928;2023-04-01T17:42:46;100469.06;;;11.19;100.00
45050;BME280;61798;48.048;-1.928;2023-04-01T17:47:41;100454.38;;;11.02;100.00
45050;BME280;61798;48.048;-1.928;2023-04-01T17:50:18;100475.66;;;11.17;100.00
45050;BME280;61798;48.048;-1.928;2023-04-01T17:54:47;100484.28;;;11.05;100.00
45050;BME280;61798;48.048;-1.928;2023-04-01T17:57:06;100481.19;;;11.08;100.00
45050;BME280;61798;48.048;-1.928;2023-04-01T18:02:42;100497.41;;;10.86;100.00
45050;BME280;61798;48.048;-1.928;2023-04-01T18:23:55;100540.94;;;9.87;100.00
45050;BME280;61798;48.048;-1.928;2023-04-01T18:26:07;100545.19;;;9.81;100.00
45050;BME280;61798;48.048;-1.928;2023-04-01T18:30:37;100558.69;;;9.72;100.00
45050;BME280;61798;48.048;-1.928;2023-04-01T18:38:12;100576.50;;;9.43;100.00
45050;BME280;61798;48.048;-1.928;2023-04-01T18:40:36;100585.06;;;9.38;100.00
45050;BME280;61798;48.048;-1.928;2023-04-01T18:47:47;100590.31;;;9.31;100.00
45050;BME280;61798;48.048;-1.928;2023-04-01T18:50:24;100590.03;;;9.41;100.00
45050;BME280;61798;48.048;-1.928;2023-04-01T18:52:36;100588.56;;;9.24;100.00
45050;BME280;61798;48.048;-1.928;2023-04-01T18:55:32;100574.47;;;9.15;100.00
45050;BME280;61798;48.048;-1.928;2023-04-01T18:59:51;100622.31;;;9.40;100.00